createdAt,value
2022-11-20T00:01:37.883Z,22.80
2022-11-20T00:04:06.034Z,22.60
2022-11-20T00:06:34.533Z,22.80
2022-11-20T00:09:02.895Z,23.40
2022-11-20T00:11:32.413Z,22.60
2022-11-20T00:14:03.180Z,25.50
2022-11-20T00:16:33.628Z,26.40
2022-11-20T00:19:02.630Z,24.20
2022-11-20T00:21:31.562Z,27.00
2022-11-20T00:24:00.501Z,24.40
2022-11-20T00:26:30.393Z,21.30
2022-11-20T00:29:01.310Z,19.70
2022-11-20T00:31:30.672Z,20.70
2022-11-20T00:33:58.790Z,17.90
2022-11-20T00:36:29.415Z,19.20
2022-11-20T00:38:59.619Z,18.40
2022-11-20T00:41:30.140Z,18.00
2022-11-20T00:43:59.134Z,17.30
2022-11-20T00:46:29.027Z,18.80
2022-11-20T00:48:58.387Z,17.90
2022-11-20T00:51:28.929Z,19.00
2022-11-20T00:53:58.697Z,18.30
2022-11-20T00:56:27.319Z,19.50
2022-11-20T00:58:55.527Z,18.80
2022-11-20T01:01:27.262Z,20.00
2022-11-20T01:03:58.007Z,17.90
2022-11-20T01:06:33.689Z,20.10
2022-11-20T01:09:06.282Z,20.60
2022-11-20T01:11:37.926Z,18.80
2022-11-20T01:14:09.347Z,20.20
2022-11-20T01:16:46.954Z,19.30
2022-11-20T01:19:22.538Z,18.60
2022-11-20T01:21:53.949Z,19.00
2022-11-20T01:24:23.077Z,21.20
2022-11-20T01:26:54.829Z,19.30
2022-11-20T01:29:25.238Z,20.90
2022-11-20T01:31:54.202Z,20.80
2022-11-20T01:34:23.649Z,22.50
2022-11-20T01:36:54.251Z,18.20
2022-11-20T01:39:25.374Z,20.60
2022-11-20T01:42:14.321Z,22.00
2022-11-20T01:44:52.909Z,21.70
2022-11-20T01:47:38.338Z,22.00
2022-11-20T01:50:06.652Z,22.70
2022-11-20T01:52:44.177Z,19.80
2022-11-20T01:55:20.418Z,21.20
2022-11-20T01:57:49.902Z,20.60
2022-11-20T02:00:20.168Z,20.80
2022-11-20T02:02:58.517Z,22.00
2022-11-20T02:05:37.984Z,22.30
2022-11-20T02:08:07.931Z,19.30
2022-11-20T02:10:36.479Z,19.50
2022-11-20T02:13:23.967Z,18.80
2022-11-20T02:15:52.746Z,22.50
2022-11-20T02:18:22.377Z,21.10
2022-11-20T02:20:58.177Z,21.30
2022-11-20T02:23:32.036Z,21.20
2022-11-20T02:26:04.616Z,23.30
2022-11-20T02:28:33.304Z,21.40
2022-11-20T02:31:02.444Z,21.60
2022-11-20T02:33:31.062Z,20.60
2022-11-20T02:35:59.217Z,22.20
2022-11-20T02:38:27.553Z,22.70
2022-11-20T02:40:56.090Z,21.20
2022-11-20T02:43:24.457Z,19.60
2022-11-20T02:45:52.462Z,19.60
2022-11-20T02:48:20.655Z,22.40
2022-11-20T02:50:48.592Z,21.70
2022-11-20T02:53:17.069Z,19.20
2022-11-20T02:55:45.145Z,19.10
2022-11-20T02:58:13.122Z,23.00
2022-11-20T03:00:41.591Z,19.40
2022-11-20T03:03:09.614Z,19.40
2022-11-20T03:05:38.055Z,21.30
2022-11-20T03:08:06.369Z,21.50
2022-11-20T03:10:34.600Z,19.60
2022-11-20T03:13:02.639Z,19.30
2022-11-20T03:15:32.153Z,21.30
2022-11-20T03:18:00.260Z,20.80
2022-11-20T03:20:28.360Z,19.70
2022-11-20T03:22:56.630Z,17.50
2022-11-20T03:25:24.774Z,17.70
2022-11-20T03:27:53.216Z,18.80
2022-11-20T03:30:23.210Z,17.50
2022-11-20T03:32:54.959Z,16.70
2022-11-20T03:35:23.075Z,17.40
2022-11-20T03:37:51.244Z,20.50
2022-11-20T03:40:19.569Z,20.40
2022-11-20T03:42:47.637Z,20.10
2022-11-20T03:45:19.349Z,17.90
2022-11-20T03:47:47.783Z,19.40
2022-11-20T03:50:16.210Z,19.20
2022-11-20T03:52:44.595Z,19.00
2022-11-20T03:55:12.594Z,20.80
2022-11-20T03:57:40.601Z,18.20
2022-11-20T04:00:09.318Z,19.20
2022-11-20T04:02:37.355Z,20.40
2022-11-20T04:05:05.631Z,17.50
2022-11-20T04:07:34.978Z,19.10
2022-11-20T04:10:03.522Z,20.50
2022-11-20T04:12:33.465Z,20.70
2022-11-20T04:15:01.826Z,22.70
2022-11-20T04:17:32.205Z,24.60
2022-11-20T04:20:00.272Z,23.30
2022-11-20T04:22:28.367Z,23.90
2022-11-20T04:24:56.848Z,25.20
2022-11-20T04:27:24.840Z,27.30
2022-11-20T04:29:52.946Z,28.80
2022-11-20T04:32:21.058Z,27.10
2022-11-20T04:34:49.108Z,28.50
2022-11-20T04:37:17.161Z,29.00
2022-11-20T04:39:45.181Z,30.00
2022-11-20T04:42:31.680Z,28.00
2022-11-20T04:44:59.671Z,28.90
2022-11-20T04:47:27.846Z,27.10
2022-11-20T04:49:55.934Z,31.10
2022-11-20T04:52:24.147Z,29.50
2022-11-20T04:54:53.979Z,31.60
2022-11-20T04:57:22.122Z,27.80
2022-11-20T04:59:50.297Z,28.60
2022-11-20T05:02:18.883Z,28.30
2022-11-20T05:04:46.915Z,30.60
2022-11-20T05:07:15.263Z,31.40
2022-11-20T05:09:43.309Z,30.50
2022-11-20T05:12:12.020Z,29.40
2022-11-20T05:14:40.216Z,28.60
2022-11-20T05:17:11.530Z,28.10
2022-11-20T05:19:39.546Z,28.00
2022-11-20T05:22:07.641Z,29.30
2022-11-20T05:24:35.891Z,29.00
2022-11-20T05:27:04.075Z,35.40
2022-11-20T05:29:32.775Z,31.50
2022-11-20T05:32:00.864Z,31.10
2022-11-20T05:34:29.077Z,34.00
2022-11-20T05:36:57.189Z,30.90
2022-11-20T05:39:30.163Z,28.70
2022-11-20T05:42:18.131Z,27.40
2022-11-20T05:44:46.331Z,28.20
2022-11-20T05:47:16.645Z,30.00
2022-11-20T05:49:47.631Z,31.10
2022-11-20T05:52:16.100Z,31.10
2022-11-20T05:54:45.607Z,30.40
2022-11-20T05:57:14.233Z,32.40
2022-11-20T05:59:43.073Z,32.90
2022-11-20T06:02:14.896Z,36.30
2022-11-20T06:04:46.712Z,34.50
2022-11-20T06:07:15.204Z,37.50
2022-11-20T06:09:43.843Z,37.00
2022-11-20T06:12:12.819Z,38.60
2022-11-20T06:14:43.062Z,41.10
2022-11-20T06:17:12.871Z,36.80
2022-11-20T06:19:41.089Z,36.40
2022-11-20T06:22:09.302Z,39.60
2022-11-20T06:24:37.833Z,37.50
2022-11-20T06:27:05.895Z,38.10
2022-11-20T06:29:35.637Z,37.30
2022-11-20T06:32:05.034Z,40.40
2022-11-20T06:34:33.463Z,36.80
2022-11-20T06:37:01.658Z,39.00
2022-11-20T06:39:30.575Z,38.10
2022-11-20T06:41:59.378Z,39.50
2022-11-20T06:44:27.866Z,39.10
2022-11-20T06:46:55.890Z,39.70
2022-11-20T06:49:24.429Z,40.90
2022-11-20T06:51:53.098Z,39.80
2022-11-20T06:54:21.249Z,42.90
2022-11-20T06:56:50.057Z,38.90
2022-11-20T06:59:17.969Z,40.40
2022-11-20T07:01:46.492Z,40.30
2022-11-20T07:04:16.474Z,39.60
2022-11-20T07:06:45.609Z,42.50
2022-11-20T07:09:14.429Z,39.70
2022-11-20T07:11:42.991Z,42.30
2022-11-20T07:14:11.560Z,41.60
2022-11-20T07:16:39.842Z,42.10
2022-11-20T07:19:08.996Z,44.20
2022-11-20T07:21:37.309Z,37.60
2022-11-20T07:24:05.875Z,36.90
2022-11-20T07:26:34.712Z,38.50
2022-11-20T07:29:03.814Z,39.00
2022-11-20T07:31:32.967Z,38.90
2022-11-20T07:34:01.368Z,35.70
2022-11-20T07:36:30.902Z,36.70
2022-11-20T07:38:59.258Z,37.40
2022-11-20T07:42:00.099Z,37.60
2022-11-20T07:44:34.890Z,38.10
2022-11-20T07:47:07.639Z,37.50
2022-11-20T07:49:35.810Z,37.70
2022-11-20T07:52:05.270Z,35.40
2022-11-20T07:54:34.831Z,39.00
2022-11-20T07:57:03.917Z,39.20
2022-11-20T07:59:32.815Z,36.50
2022-11-20T08:02:01.803Z,35.60
2022-11-20T08:04:34.424Z,38.40
2022-11-20T08:07:02.604Z,36.70
2022-11-20T08:09:30.746Z,38.50
2022-11-20T08:12:31.775Z,38.80
2022-11-20T08:15:07.200Z,34.90
2022-11-20T08:17:38.947Z,41.60
2022-11-20T08:20:07.581Z,35.60
2022-11-20T08:22:36.074Z,38.80
2022-11-20T08:25:07.511Z,36.20
2022-11-20T08:27:37.782Z,40.60
2022-11-20T08:30:10.043Z,38.20
2022-11-20T08:32:39.070Z,38.00
2022-11-20T08:35:08.599Z,37.10
2022-11-20T08:37:40.144Z,37.60
2022-11-20T08:40:16.943Z,36.80
2022-11-20T08:42:51.821Z,36.70
2022-11-20T08:45:20.702Z,40.60
2022-11-20T08:47:49.157Z,36.50
2022-11-20T08:50:18.260Z,37.20
2022-11-20T08:52:46.760Z,38.80
2022-11-20T08:55:16.074Z,39.70
2022-11-20T08:57:49.535Z,40.10
2022-11-20T09:00:19.567Z,39.90
2022-11-20T09:02:48.193Z,39.00
2022-11-20T09:05:20.162Z,38.40
2022-11-20T09:07:48.931Z,36.10
2022-11-20T09:10:23.951Z,36.50
2022-11-20T09:12:55.096Z,39.20
2022-11-20T09:15:25.759Z,39.50
2022-11-20T09:18:01.010Z,36.90
2022-11-20T09:20:31.355Z,36.80
2022-11-20T09:22:59.787Z,38.20
2022-11-20T09:25:29.008Z,38.00
2022-11-20T09:28:00.377Z,39.20
2022-11-20T09:30:29.599Z,39.20
2022-11-20T09:32:57.899Z,36.80
2022-11-20T09:35:26.724Z,37.00
2022-11-20T09:37:59.544Z,35.30
2022-11-20T09:40:30.635Z,37.70
2022-11-20T09:43:02.868Z,35.00
2022-11-20T09:46:02.333Z,32.60
2022-11-20T09:48:55.166Z,31.00
2022-11-20T09:51:48.808Z,32.90
2022-11-20T09:54:23.540Z,35.70
2022-11-20T09:57:01.421Z,35.10
2022-11-20T09:59:44.028Z,32.70
2022-11-20T10:02:25.535Z,34.40
2022-11-20T10:04:57.511Z,33.30
2022-11-20T10:07:56.713Z,33.50
2022-11-20T10:10:54.994Z,31.70
2022-11-20T10:13:36.525Z,30.40
2022-11-20T10:16:41.271Z,35.50
2022-11-20T10:19:34.244Z,33.60
2022-11-20T10:22:17.128Z,32.70
2022-11-20T10:25:02.551Z,35.10
2022-11-20T10:28:08.250Z,36.40
2022-11-20T10:30:42.255Z,34.00
2022-11-20T10:33:18.816Z,33.70
2022-11-20T10:36:00.640Z,32.90
2022-11-20T10:38:50.960Z,35.00
2022-11-20T10:41:35.935Z,34.30
2022-11-20T10:44:15.892Z,41.60
2022-11-20T10:46:48.471Z,40.60
2022-11-20T10:49:20.421Z,38.10
2022-11-20T10:52:10.627Z,39.10
2022-11-20T10:54:39.216Z,37.20
2022-11-20T10:57:36.746Z,35.90
2022-11-20T11:00:10.453Z,35.10
2022-11-20T11:02:49.116Z,37.60
2022-11-20T11:05:21.253Z,38.00
2022-11-20T11:07:54.684Z,38.50
2022-11-20T11:10:51.866Z,36.40
2022-11-20T11:13:29.487Z,42.40
2022-11-20T11:15:59.755Z,38.60
2022-11-20T11:18:31.396Z,43.10
2022-11-20T11:21:03.699Z,39.50
2022-11-20T11:23:44.050Z,40.50
2022-11-20T11:26:27.096Z,38.20
2022-11-20T11:29:04.568Z,35.10
2022-11-20T11:31:36.284Z,34.00
2022-11-20T11:34:12.852Z,33.70
2022-11-20T11:36:42.602Z,37.30
2022-11-20T11:39:17.587Z,34.70
2022-11-20T11:41:46.921Z,33.20
2022-11-20T11:44:38.994Z,33.20
2022-11-20T11:47:21.002Z,32.20
2022-11-20T11:49:49.825Z,32.70
2022-11-20T11:52:22.500Z,35.80
2022-11-20T11:54:56.454Z,34.20
2022-11-20T11:57:38.219Z,37.30
2022-11-20T12:00:18.333Z,37.40
2022-11-20T12:02:46.518Z,36.10
2022-11-20T12:05:19.036Z,39.80
2022-11-20T12:07:59.917Z,36.80
2022-11-20T12:10:28.464Z,38.30
2022-11-20T12:13:05.276Z,41.00
2022-11-20T12:15:35.823Z,40.40
2022-11-20T12:18:15.586Z,38.40
2022-11-20T12:20:55.667Z,40.50
2022-11-20T12:23:47.594Z,40.20
2022-11-20T12:26:42.246Z,39.40
2022-11-20T12:29:14.968Z,42.40
2022-11-20T12:31:51.583Z,41.30
2022-11-20T12:34:46.483Z,41.40
2022-11-20T12:37:49.455Z,39.30
2022-11-20T12:40:39.253Z,41.40
2022-11-20T12:43:43.950Z,41.60
2022-11-20T12:46:50.522Z,47.00
2022-11-20T12:49:44.017Z,41.40
2022-11-20T12:52:44.799Z,48.30
2022-11-20T12:55:33.855Z,46.80
2022-11-20T12:58:03.465Z,43.80
2022-11-20T13:00:36.236Z,45.00
2022-11-20T13:03:38.965Z,46.60
2022-11-20T13:06:17.144Z,44.40
2022-11-20T13:08:57.159Z,43.70
2022-11-20T13:11:48.760Z,47.40
2022-11-20T13:14:23.679Z,47.20
2022-11-20T13:17:05.932Z,46.70
2022-11-20T13:19:42.738Z,45.30
2022-11-20T13:22:44.232Z,46.00
2022-11-20T13:25:31.693Z,44.40
2022-11-20T13:28:07.503Z,46.20
2022-11-20T13:30:38.399Z,46.00
2022-11-20T13:33:28.604Z,49.80
2022-11-20T13:36:04.520Z,48.30
2022-11-20T13:38:49.765Z,50.10
2022-11-20T13:41:39.354Z,47.50
2022-11-20T13:44:37.335Z,47.30
2022-11-20T13:47:22.168Z,51.60
2022-11-20T13:49:53.055Z,52.40
2022-11-20T13:52:31.360Z,51.10
2022-11-20T13:55:29.640Z,52.50
2022-11-20T13:58:17.778Z,48.40
2022-11-20T14:00:53.086Z,48.40
2022-11-20T14:04:04.100Z,48.90
2022-11-20T14:06:44.770Z,50.60
2022-11-20T14:09:34.078Z,51.80
2022-11-20T14:12:15.634Z,51.60
2022-11-20T14:14:55.582Z,54.00
2022-11-20T14:17:30.110Z,54.40
2022-11-20T14:20:03.884Z,57.00
2022-11-20T14:22:33.144Z,49.70
2022-11-20T14:25:15.491Z,53.70
2022-11-20T14:27:52.097Z,51.90
2022-11-20T14:30:50.004Z,53.00
2022-11-20T14:33:20.501Z,49.70
2022-11-20T14:35:51.351Z,49.20
2022-11-20T14:38:32.737Z,51.40
2022-11-20T14:41:09.405Z,49.00
2022-11-20T14:43:39.838Z,49.30
2022-11-20T14:46:11.538Z,48.40
2022-11-20T14:48:51.676Z,49.90
2022-11-20T14:51:31.010Z,52.10
2022-11-20T14:54:21.240Z,53.50
2022-11-20T14:57:03.110Z,54.20
2022-11-20T14:59:34.657Z,56.80
2022-11-20T15:02:16.560Z,50.80
2022-11-20T15:05:04.449Z,56.30
2022-11-20T15:07:36.432Z,55.20
2022-11-20T15:10:09.910Z,58.60
2022-11-20T15:12:47.372Z,55.60
2022-11-20T15:15:21.883Z,62.10
2022-11-20T15:17:52.180Z,56.20
2022-11-20T15:20:25.608Z,70.20
2022-11-20T15:22:55.940Z,89.90
2022-11-20T15:25:26.501Z,102.90
2022-11-20T15:27:58.492Z,106.90
2022-11-20T15:30:27.178Z,119.50
2022-11-20T15:32:55.640Z,99.90
2022-11-20T15:35:24.272Z,123.70
2022-11-20T15:38:11.005Z,131.40
2022-11-20T15:40:39.362Z,181.80
2022-11-20T15:43:13.318Z,219.60
2022-11-20T15:45:52.911Z,218.20
2022-11-20T15:48:23.240Z,228.30
2022-11-20T15:51:10.987Z,214.80
2022-11-20T15:53:41.218Z,185.70
2022-11-20T15:56:14.032Z,170.00
2022-11-20T15:58:42.706Z,143.10
2022-11-20T16:01:17.217Z,133.20
2022-11-20T16:03:48.131Z,112.30
2022-11-20T16:06:17.397Z,112.50
2022-11-20T16:08:45.611Z,110.40
2022-11-20T16:11:16.279Z,109.50
2022-11-20T16:14:02.936Z,108.50
2022-11-20T16:16:36.509Z,104.00
2022-11-20T16:19:07.207Z,103.20
2022-11-20T16:21:35.880Z,104.30
2022-11-20T16:24:06.530Z,163.80
2022-11-20T16:26:34.986Z,139.80
2022-11-20T16:29:05.069Z,133.70
2022-11-20T16:31:34.339Z,125.10
2022-11-20T16:34:12.024Z,117.20
2022-11-20T16:36:43.325Z,126.90
2022-11-20T16:39:16.683Z,125.00
2022-11-20T16:41:49.276Z,122.30
2022-11-20T16:44:19.105Z,123.10
2022-11-20T16:46:47.098Z,122.20
2022-11-20T16:49:15.476Z,100.70
2022-11-20T16:51:43.764Z,121.30
2022-11-20T16:54:16.423Z,116.20
2022-11-20T16:56:48.472Z,127.50
2022-11-20T16:59:18.194Z,150.70
2022-11-20T17:01:46.669Z,154.70
2022-11-20T17:04:14.977Z,169.70
2022-11-20T17:06:44.428Z,160.50
2022-11-20T17:09:13.820Z,218.90
2022-11-20T17:11:42.014Z,154.70
2022-11-20T17:14:11.919Z,152.20
2022-11-20T17:16:40.675Z,154.20
2022-11-20T17:19:09.958Z,150.40
2022-11-20T17:21:39.763Z,150.60
2022-11-20T17:24:10.714Z,149.50
2022-11-20T17:26:40.714Z,157.20
2022-11-20T17:29:23.931Z,159.60
2022-11-20T17:31:55.114Z,169.90
2022-11-20T17:34:23.685Z,161.70
2022-11-20T17:36:53.046Z,133.60
2022-11-20T17:39:22.504Z,128.50
2022-11-20T17:42:10.766Z,128.00
2022-11-20T17:44:59.495Z,120.00
2022-11-20T17:47:27.616Z,116.50
2022-11-20T17:49:56.289Z,114.00
2022-11-20T17:52:26.247Z,109.50
2022-11-20T17:54:57.120Z,111.40
2022-11-20T17:57:43.860Z,130.40
2022-11-20T18:00:13.293Z,126.80
2022-11-20T18:02:41.935Z,131.70
2022-11-20T18:05:11.369Z,162.50
2022-11-20T18:07:41.895Z,141.20
2022-11-20T18:10:10.511Z,141.10
2022-11-20T18:12:39.124Z,121.60
2022-11-20T18:15:09.055Z,116.30
2022-11-20T18:17:37.457Z,117.60
2022-11-20T18:20:27.879Z,117.80
2022-11-20T18:22:54.845Z,126.00
2022-11-20T18:25:25.078Z,142.90
2022-11-20T18:27:53.421Z,135.50
2022-11-20T18:30:21.746Z,131.70
2022-11-20T18:32:50.499Z,130.80
2022-11-20T18:35:21.337Z,136.10
2022-11-20T18:37:49.593Z,134.80
2022-11-20T18:40:17.960Z,118.50
2022-11-20T18:43:05.457Z,113.00
2022-11-20T18:45:33.791Z,114.10
2022-11-20T18:48:02.322Z,109.50
2022-11-20T18:50:30.844Z,105.10
2022-11-20T18:52:59.843Z,102.20
2022-11-20T18:55:29.602Z,104.50
2022-11-20T18:57:58.550Z,99.90
2022-11-20T19:00:26.931Z,100.60
2022-11-20T19:02:55.455Z,99.40
2022-11-20T19:05:24.273Z,100.20
2022-11-20T19:07:52.538Z,98.40
2022-11-20T19:10:24.907Z,91.90
2022-11-20T19:12:53.872Z,92.30
2022-11-20T19:15:22.673Z,93.60
2022-11-20T19:17:53.417Z,96.10
2022-11-20T19:20:21.804Z,92.50
2022-11-20T19:22:51.149Z,87.30
2022-11-20T19:25:20.058Z,82.20
2022-11-20T19:27:48.273Z,83.70
2022-11-20T19:30:18.435Z,78.30
2022-11-20T19:32:46.683Z,73.90
2022-11-20T19:35:15.167Z,77.30
2022-11-20T19:37:44.812Z,70.80
2022-11-20T19:40:14.511Z,71.80
2022-11-20T19:42:43.082Z,71.40
2022-11-20T19:45:12.193Z,69.00
2022-11-20T19:50:29.384Z,67.50
2022-11-20T19:52:59.037Z,67.70
2022-11-20T19:55:27.595Z,71.20
2022-11-20T19:57:56.715Z,70.00
2022-11-20T20:00:32.207Z,72.50
2022-11-20T20:03:04.512Z,71.40
2022-11-20T20:05:34.822Z,71.80
2022-11-20T20:08:03.290Z,64.50
2022-11-20T20:10:32.615Z,65.20
2022-11-20T20:13:05.751Z,65.50
2022-11-20T20:15:35.661Z,64.70
2022-11-20T20:18:04.506Z,63.90
2022-11-20T20:20:33.242Z,59.00
2022-11-20T20:23:03.284Z,61.60
2022-11-20T20:25:33.559Z,60.80
2022-11-20T20:28:02.426Z,54.90
2022-11-20T20:30:31.631Z,60.20
2022-11-20T20:32:59.498Z,54.80
2022-11-20T20:35:28.618Z,54.90
2022-11-20T20:37:57.460Z,54.50
2022-11-20T20:40:26.428Z,51.00
2022-11-20T20:42:55.113Z,52.90
2022-11-20T20:45:23.911Z,51.10
2022-11-20T20:47:52.850Z,51.80
2022-11-20T20:50:23.616Z,49.70
2022-11-20T20:52:52.269Z,49.50
2022-11-20T20:55:20.598Z,47.10
2022-11-20T20:57:48.674Z,50.90
2022-11-20T21:00:17.802Z,51.90
2022-11-20T21:02:46.417Z,48.60
2022-11-20T21:05:14.970Z,50.40
2022-11-20T21:08:02.039Z,52.30
2022-11-20T21:10:31.428Z,51.20
2022-11-20T21:12:59.864Z,54.20
2022-11-20T21:15:28.794Z,57.80
2022-11-20T21:17:59.104Z,56.90
2022-11-20T21:20:45.975Z,60.00
2022-11-20T21:23:14.125Z,60.40
2022-11-20T21:25:43.673Z,64.20
2022-11-20T21:28:16.798Z,66.90
2022-11-20T21:30:47.450Z,67.60
2022-11-20T21:33:15.972Z,72.60
2022-11-20T21:35:43.823Z,68.80
2022-11-20T21:38:11.841Z,66.80
2022-11-20T21:40:39.588Z,63.40
2022-11-20T21:43:07.360Z,64.10
2022-11-20T21:45:35.123Z,61.30
2022-11-20T21:48:03.560Z,60.30
2022-11-20T21:50:31.654Z,59.30
2022-11-20T21:52:59.553Z,58.30
2022-11-20T21:55:27.401Z,49.10
2022-11-20T21:57:55.215Z,45.60
2022-11-20T22:00:23.329Z,46.60
2022-11-20T22:02:51.264Z,49.90
2022-11-20T22:05:19.112Z,50.10
2022-11-20T22:07:47.051Z,49.50
2022-11-20T22:10:18.455Z,46.50
2022-11-20T22:12:46.758Z,50.00
2022-11-20T22:15:20.398Z,50.10
2022-11-20T22:18:13.886Z,51.40
2022-11-20T22:20:42.048Z,50.30
2022-11-20T22:23:12.262Z,49.80
2022-11-20T22:25:40.225Z,49.40
2022-11-20T22:28:08.179Z,50.70
2022-11-20T22:30:36.081Z,51.40
2022-11-20T22:33:05.772Z,51.80
2022-11-20T22:35:36.815Z,50.80
2022-11-20T22:38:04.771Z,50.30
2022-11-20T22:40:32.972Z,50.10
2022-11-20T22:43:00.766Z,52.10
2022-11-20T22:45:28.505Z,52.30
2022-11-20T22:47:56.345Z,48.70
2022-11-20T22:50:25.493Z,50.20
2022-11-20T22:52:55.437Z,51.70
2022-11-20T22:55:23.512Z,50.60
2022-11-20T22:57:51.366Z,53.10
2022-11-20T23:00:19.675Z,53.20
2022-11-20T23:02:47.594Z,55.00
2022-11-20T23:05:15.414Z,52.20
2022-11-20T23:07:44.045Z,52.10
2022-11-20T23:10:13.042Z,53.00
2022-11-20T23:12:41.939Z,54.50
2022-11-20T23:15:10.345Z,50.30
2022-11-20T23:17:38.261Z,50.20
2022-11-20T23:20:06.916Z,53.10
2022-11-20T23:22:34.917Z,56.20
2022-11-20T23:25:03.206Z,50.30
2022-11-20T23:27:31.056Z,53.90
2022-11-20T23:29:59.174Z,54.50
2022-11-20T23:32:27.039Z,54.70
2022-11-20T23:34:54.833Z,55.20
2022-11-20T23:37:22.569Z,53.70
2022-11-20T23:39:50.381Z,60.80
2022-11-20T23:42:18.385Z,52.00
2022-11-20T23:44:46.433Z,58.70
2022-11-20T23:47:14.429Z,53.00
2022-11-20T23:49:42.324Z,59.30
2022-11-20T23:52:10.577Z,55.40
2022-11-20T23:54:38.479Z,59.50
2022-11-20T23:57:06.243Z,57.40
2022-11-20T23:59:34.075Z,59.90
